Time;durP1;ratioP1;P1;durP2;ratioP2;P2;SDS_P1;SDS_P2;PMS_P1;PMS_P2;Temp;Humidity;BMP_temperature;BMP_pressure;BME280_temperature;BME280_humidity;BME280_pressure;Samples;Min_cycle;Max_cycle;Signal;HPM_P1;HPM_P2
2022/05/02 00:02:14;;;;;;;75.77;15.40;;;;;;;;;;4955308;28;20219;-71
2022/05/02 00:04:40;;;;;;;75.10;15.13;;;;;;;;;;4961535;28;20224;-71
2022/05/02 00:07:06;;;;;;;153.90;31.50;;;;;;;;;;4950284;28;20613;-71
2022/05/02 00:09:32;;;;;;;67.70;14.43;;;;;;;;;;4955927;28;20197;-71
2022/05/02 00:11:58;;;;;;;185.47;39.60;;;;;;;;;;4952201;28;20203;-71
2022/05/02 00:14:24;;;;;;;78.83;16.23;;;;;;;;;;4951044;28;20739;-71
2022/05/02 00:16:50;;;;;;;125.77;24.47;;;;;;;;;;4956944;28;20236;-71
2022/05/02 00:19:16;;;;;;;99.33;19.93;;;;;;;;;;4958980;28;20696;-71
2022/05/02 00:21:42;;;;;;;93.77;19.10;;;;;;;;;;4956109;28;21103;-71
2022/05/02 00:24:09;;;;;;;112.87;22.73;;;;;;;;;;4957475;28;20687;-71
2022/05/02 00:26:35;;;;;;;105.70;21.13;;;;;;;;;;4943317;28;20225;-71
2022/05/02 00:29:01;;;;;;;114.93;22.40;;;;;;;;;;4952701;28;20321;-71
2022/05/02 00:31:27;;;;;;;80.90;16.20;;;;;;;;;;4956896;28;20803;-71
2022/05/02 00:33:53;;;;;;;135.83;26.60;;;;;;;;;;4947086;28;20219;-71
2022/05/02 00:36:19;;;;;;;119.78;22.95;;;;;;;;;;4959387;28;20191;-71
2022/05/02 00:38:45;;;;;;;82.47;16.07;;;;;;;;;;4957739;28;20210;-71
2022/05/02 00:41:11;;;;;;;125.88;24.02;;;;;;;;;;4957961;28;20663;-72
2022/05/02 00:43:40;;;;;;;67.60;14.10;;;;;;;;;;4957797;28;20257;-71
2022/05/02 00:46:17;;;;;;;104.07;19.97;;;;;;;;;;4956608;28;20826;-70
2022/05/02 00:48:42;;;;;;;79.47;15.67;;;;;;;;;;4956960;28;20232;-71
2022/05/02 00:51:08;;;;;;;145.27;27.93;;;;;;;;;;4951002;28;20191;-71
2022/05/02 00:53:34;;;;;;;86.77;17.03;;;;;;;;;;4952508;28;20772;-71
2022/05/02 00:56:01;;;;;;;73.10;15.77;;;;;;;;;;4956397;28;20207;-71
2022/05/02 00:58:27;;;;;;;63.60;12.80;;;;;;;;;;4957394;28;20214;-71
2022/05/02 01:00:53;;;;;;;108.47;20.97;;;;;;;;;;4960776;28;20214;-71
2022/05/02 01:03:19;;;;;;;93.43;18.43;;;;;;;;;;4958909;28;20268;-71
2022/05/02 01:08:33;;;;;;;56.87;11.33;;;;;;;;;;4950333;28;20743;-71
2022/05/02 01:10:59;;;;;;;81.50;16.13;;;;;;;;;;4959913;28;20866;-71
2022/05/02 01:13:51;;;;;;;77.53;15.10;;;;;;;;;;4953511;28;20656;-71
2022/05/02 01:16:21;;;;;;;99.00;19.43;;;;;;;;;;4955866;28;20281;-71
2022/05/02 01:18:48;;;;;;;66.50;13.10;;;;;;;;;;4961701;28;20248;-71
2022/05/02 01:21:19;;;;;;;143.80;26.93;;;;;;;;;;4961839;28;20241;-72
2022/05/02 01:23:46;;;;;;;88.17;17.03;;;;;;;;;;4934280;28;20229;-71
2022/05/02 01:26:13;;;;;;;107.20;20.20;;;;;;;;;;4956690;28;20223;-71
2022/05/02 01:28:43;;;;;;;69.00;13.43;;;;;;;;;;4941076;28;20296;-71
2022/05/02 01:31:09;;;;;;;113.18;21.70;;;;;;;;;;4958056;28;20230;-71
2022/05/02 01:33:35;;;;;;;71.83;14.37;;;;;;;;;;4953510;28;20206;-71
2022/05/02 01:36:01;;;;;;;123.97;24.43;;;;;;;;;;4939207;28;20640;-71
2022/05/02 01:38:27;;;;;;;105.80;19.90;;;;;;;;;;4951297;28;20210;-71
2022/05/02 01:40:53;;;;;;;98.40;19.77;;;;;;;;;;4949554;28;20215;-72
2022/05/02 01:43:19;;;;;;;131.33;26.37;;;;;;;;;;4946679;28;20661;-71
2022/05/02 01:45:45;;;;;;;146.80;30.03;;;;;;;;;;4952552;28;20345;-71
2022/05/02 01:48:11;;;;;;;142.80;31.50;;;;;;;;;;4935997;28;20186;-70
2022/05/02 01:50:37;;;;;;;102.27;21.17;;;;;;;;;;4957401;28;20222;-71
2022/05/02 01:53:03;;;;;;;119.50;25.20;;;;;;;;;;4934683;28;20229;-70
2022/05/02 01:55:29;;;;;;;113.00;22.37;;;;;;;;;;4937181;28;20245;-71
2022/05/02 01:57:55;;;;;;;109.90;22.23;;;;;;;;;;4933491;28;20221;-71
2022/05/02 02:00:21;;;;;;;88.13;18.23;;;;;;;;;;4935252;28;20191;-71
2022/05/02 02:02:47;;;;;;;114.87;23.50;;;;;;;;;;4929958;28;20330;-71
2022/05/02 02:07:57;;;;;;;179.23;37.57;;;;;;;;;;4954988;28;20269;-71
2022/05/02 02:10:23;;;;;;;62.73;12.57;;;;;;;;;;4954326;28;20588;-70
2022/05/02 02:12:49;;;;;;;98.80;19.80;;;;;;;;;;4957411;28;20283;-71
2022/05/02 02:15:15;;;;;;;102.47;20.13;;;;;;;;;;4936943;28;20175;-71
2022/05/02 02:17:44;;;;;;;118.97;23.63;;;;;;;;;;4958917;28;20210;-71
2022/05/02 02:20:13;;;;;;;130.80;27.00;;;;;;;;;;4955033;28;20214;-70
2022/05/02 02:22:40;;;;;;;61.43;13.13;;;;;;;;;;4953046;28;20221;-70
2022/05/02 02:25:06;;;;;;;88.70;17.63;;;;;;;;;;4958832;28;20728;-71
2022/05/02 02:27:32;;;;;;;93.03;18.53;;;;;;;;;;4949660;28;20194;-70
2022/05/02 02:29:58;;;;;;;120.90;25.33;;;;;;;;;;4952964;28;20565;-71
2022/05/02 02:32:25;;;;;;;145.90;28.57;;;;;;;;;;4951322;28;20843;-70
2022/05/02 02:34:51;;;;;;;51.37;10.67;;;;;;;;;;4956399;28;20232;-71
2022/05/02 02:37:17;;;;;;;99.63;19.83;;;;;;;;;;4950976;28;20253;-71
2022/05/02 02:39:43;;;;;;;89.80;17.87;;;;;;;;;;4957419;28;20256;-70
2022/05/02 02:42:09;;;;;;;127.87;26.40;;;;;;;;;;4952518;28;20220;-70
2022/05/02 02:44:35;;;;;;;78.83;16.20;;;;;;;;;;4953193;28;20210;-70
2022/05/02 02:47:01;;;;;;;150.60;29.60;;;;;;;;;;4950948;28;20869;-70
2022/05/02 02:49:27;;;;;;;100.30;19.57;;;;;;;;;;4938302;28;21088;-70
2022/05/02 02:51:54;;;;;;;108.95;22.27;;;;;;;;;;4950476;28;20641;-71
2022/05/02 02:54:20;;;;;;;104.73;22.77;;;;;;;;;;4950381;28;20964;-71
2022/05/02 02:56:46;;;;;;;113.37;25.23;;;;;;;;;;4953530;28;20732;-71
2022/05/02 02:59:12;;;;;;;98.27;21.80;;;;;;;;;;4955491;28;20219;-71
2022/05/02 03:01:39;;;;;;;118.43;26.30;;;;;;;;;;4950553;28;20214;-71
2022/05/02 03:06:50;;;;;;;116.80;25.63;;;;;;;;;;4955687;28;20222;-71
2022/05/02 03:09:16;;;;;;;123.27;26.73;;;;;;;;;;4951537;28;20183;-71
2022/05/02 03:11:42;;;;;;;113.17;24.97;;;;;;;;;;4947389;28;20269;-71
2022/05/02 03:14:08;;;;;;;130.40;29.13;;;;;;;;;;4947295;28;20229;-71
2022/05/02 03:16:34;;;;;;;71.47;16.03;;;;;;;;;;4953509;28;20211;-72
2022/05/02 03:19:00;;;;;;;99.90;22.57;;;;;;;;;;4955268;28;20214;-71
2022/05/02 03:21:25;;;;;;;125.10;28.00;;;;;;;;;;4956801;28;20254;-71
2022/05/02 03:23:51;;;;;;;76.57;16.80;;;;;;;;;;4955747;28;20693;-70
2022/05/02 03:26:17;;;;;;;106.00;22.17;;;;;;;;;;4954746;28;20854;-70
2022/05/02 03:28:43;;;;;;;123.80;26.93;;;;;;;;;;4955207;28;20211;-70
2022/05/02 03:31:09;;;;;;;183.50;41.90;;;;;;;;;;4947199;28;20215;-71
2022/05/02 03:33:35;;;;;;;84.30;18.87;;;;;;;;;;4950222;28;20297;-70
2022/05/02 03:36:01;;;;;;;118.93;27.47;;;;;;;;;;4951995;28;20186;-71
2022/05/02 03:38:27;;;;;;;87.67;18.87;;;;;;;;;;4957075;28;20234;-70
2022/05/02 03:40:53;;;;;;;105.80;22.77;;;;;;;;;;4938681;28;20286;-73
2022/05/02 03:43:19;;;;;;;110.73;23.37;;;;;;;;;;4935192;28;20868;-71
2022/05/02 03:45:45;;;;;;;96.07;20.83;;;;;;;;;;4931161;28;20223;-70
2022/05/02 03:48:11;;;;;;;144.03;30.90;;;;;;;;;;4951160;28;20191;-71
2022/05/02 03:50:36;;;;;;;131.03;27.03;;;;;;;;;;4930371;28;20300;-71
2022/05/02 03:53:02;;;;;;;73.20;16.83;;;;;;;;;;4955886;28;20728;-71
2022/05/02 03:55:28;;;;;;;155.57;33.63;;;;;;;;;;4955101;28;20218;-71
2022/05/02 03:57:54;;;;;;;53.63;11.70;;;;;;;;;;4951924;28;20214;-71
2022/05/02 04:00:20;;;;;;;118.23;25.30;;;;;;;;;;4947774;28;20269;-71
2022/05/02 04:02:46;;;;;;;80.47;17.47;;;;;;;;;;4954773;28;20219;-71
2022/05/02 04:05:12;;;;;;;116.07;24.80;;;;;;;;;;4952620;28;20206;-70
2022/05/02 04:07:38;;;;;;;114.73;25.00;;;;;;;;;;4955466;28;20229;-70
2022/05/02 04:10:05;;;;;;;146.60;33.33;;;;;;;;;;4960411;28;20584;-70
2022/05/02 04:12:38;;;;;;;94.03;20.23;;;;;;;;;;4958095;28;20565;-70
2022/05/02 04:15:05;;;;;;;104.67;23.40;;;;;;;;;;4965877;28;20209;-71
2022/05/02 04:17:31;;;;;;;145.70;35.37;;;;;;;;;;4949542;28;20679;-70
2022/05/02 04:19:57;;;;;;;134.33;51.00;;;;;;;;;;4953051;28;20309;-71
2022/05/02 04:22:23;;;;;;;181.37;84.83;;;;;;;;;;4951617;28;20223;-71
2022/05/02 04:24:48;;;;;;;81.00;19.03;;;;;;;;;;4956085;28;20314;-71
2022/05/02 04:27:14;;;;;;;127.57;28.97;;;;;;;;;;4940876;28;20193;-71
2022/05/02 04:29:40;;;;;;;104.73;22.67;;;;;;;;;;4952055;28;20219;-71
2022/05/02 04:32:06;;;;;;;179.20;42.70;;;;;;;;;;4955066;28;20225;-71
2022/05/02 04:34:32;;;;;;;87.77;19.07;;;;;;;;;;4952809;28;20227;-71
2022/05/02 04:36:58;;;;;;;104.77;24.47;;;;;;;;;;4954472;28;20854;-71
2022/05/02 04:39:24;;;;;;;106.43;22.70;;;;;;;;;;4959137;28;20178;-70
2022/05/02 04:41:50;;;;;;;92.80;20.67;;;;;;;;;;4961833;28;20198;-72
2022/05/02 04:44:16;;;;;;;103.07;21.97;;;;;;;;;;4952771;28;20211;-71
2022/05/02 04:46:42;;;;;;;69.67;15.33;;;;;;;;;;4955333;28;20222;-71
2022/05/02 04:49:08;;;;;;;126.97;27.43;;;;;;;;;;4956027;28;20230;-71
2022/05/02 04:51:34;;;;;;;100.00;21.40;;;;;;;;;;4949524;28;20202;-71
2022/05/02 04:54:00;;;;;;;160.70;33.70;;;;;;;;;;4954329;28;20238;-71
2022/05/02 04:56:26;;;;;;;107.43;21.93;;;;;;;;;;4954544;28;20228;-71
2022/05/02 04:58:52;;;;;;;121.27;25.07;;;;;;;;;;4955872;28;20726;-71
2022/05/02 05:01:18;;;;;;;119.33;24.07;;;;;;;;;;4938888;28;20220;-71
2022/05/02 05:03:44;;;;;;;80.83;17.43;;;;;;;;;;4956699;28;20250;-71
2022/05/02 05:06:10;;;;;;;167.77;33.87;;;;;;;;;;4956707;28;20218;-71
2022/05/02 05:08:36;;;;;;;119.17;23.93;;;;;;;;;;4959084;28;23910;-71
2022/05/02 05:11:20;;;;;;;93.57;19.73;;;;;;;;;;4959370;28;20577;-71
2022/05/02 05:16:53;;;;;;;72.97;15.77;;;;;;;;;;4952792;28;21197;-71
2022/05/02 05:19:28;;;;;;;153.40;31.60;;;;;;;;;;4942615;28;20214;-71
2022/05/02 05:22:00;;;;;;;117.33;23.73;;;;;;;;;;4957849;28;20217;-72
2022/05/02 05:24:43;;;;;;;64.43;13.63;;;;;;;;;;4960904;28;20202;-71
2022/05/02 05:27:12;;;;;;;125.20;25.93;;;;;;;;;;4960009;28;20188;-71
2022/05/02 05:29:48;;;;;;;85.47;17.57;;;;;;;;;;4960699;28;20305;-68
2022/05/02 05:32:28;;;;;;;101.87;20.97;;;;;;;;;;4960804;28;20218;-69
2022/05/02 05:35:04;;;;;;;131.93;27.13;;;;;;;;;;4956868;28;20227;-68
2022/05/02 05:37:49;;;;;;;123.83;24.73;;;;;;;;;;4950201;28;20979;-68
2022/05/02 05:40:35;;;;;;;120.07;24.10;;;;;;;;;;4953417;28;20268;-68
2022/05/02 05:43:13;;;;;;;144.80;29.60;;;;;;;;;;4952386;28;20226;-67
2022/05/02 05:45:46;;;;;;;73.67;15.67;;;;;;;;;;4950490;28;20190;-67
2022/05/02 05:48:22;;;;;;;150.67;30.23;;;;;;;;;;4952377;28;20648;-68
2022/05/02 05:51:08;;;;;;;63.40;13.30;;;;;;;;;;4952704;28;20561;-68
2022/05/02 05:53:39;;;;;;;128.67;25.37;;;;;;;;;;4956313;28;20229;-67
2022/05/02 05:56:15;;;;;;;147.60;30.23;;;;;;;;;;4950543;28;20290;-67
2022/05/02 05:58:45;;;;;;;128.97;25.37;;;;;;;;;;4942585;28;20276;-67
2022/05/02 06:01:12;;;;;;;200.70;39.80;;;;;;;;;;4957941;28;20222;-67
2022/05/02 06:03:42;;;;;;;132.37;26.90;;;;;;;;;;4932855;28;20190;-67
2022/05/02 06:06:09;;;;;;;167.57;34.63;;;;;;;;;;4943676;28;20275;-68
2022/05/02 06:08:36;;;;;;;195.67;38.17;;;;;;;;;;4952926;28;21451;-67
2022/05/02 06:11:02;;;;;;;180.27;38.07;;;;;;;;;;4951519;28;20221;-67
2022/05/02 06:13:32;;;;;;;81.53;16.93;;;;;;;;;;4952974;28;21336;-66
2022/05/02 06:18:45;;;;;;;65.57;14.03;;;;;;;;;;4955648;28;20224;-69
2022/05/02 06:21:14;;;;;;;150.67;31.37;;;;;;;;;;4931780;28;20186;-64
2022/05/02 06:23:41;;;;;;;138.82;28.73;;;;;;;;;;4957993;28;20387;-64
2022/05/02 06:26:07;;;;;;;188.85;39.30;;;;;;;;;;4949178;28;20218;-64
2022/05/02 06:28:41;;;;;;;183.75;43.30;;;;;;;;;;4939767;28;20865;-62
2022/05/02 06:31:12;;;;;;;158.65;32.70;;;;;;;;;;4944027;28;20288;-63
2022/05/02 06:33:38;;;;;;;73.18;16.05;;;;;;;;;;4952369;28;20213;-65
2022/05/02 06:36:26;;;;;;;140.03;30.13;;;;;;;;;;4956015;28;20633;-65
2022/05/02 06:39:27;;;;;;;77.53;16.27;;;;;;;;;;4939882;28;20227;-65
2022/05/02 06:41:56;;;;;;;92.22;19.45;;;;;;;;;;4898090;29;20242;-65
2022/05/02 06:44:28;;;;;;;256.77;54.20;;;;;;;;;;4922221;28;20275;-64
2022/05/02 06:47:02;;;;;;;180.38;38.20;;;;;;;;;;4947570;28;20688;-64
2022/05/02 06:49:31;;;;;;;85.07;17.17;;;;;;;;;;4962445;28;20306;-64
2022/05/02 06:51:58;;;;;;;137.55;30.42;;;;;;;;;;4954765;28;20221;-64
2022/05/02 06:54:43;;;;;;;135.13;25.83;;;;;;;;;;4956729;28;20285;-63
2022/05/02 06:57:21;;;;;;;96.38;20.27;;;;;;;;;;4958107;28;20198;-62
2022/05/02 06:59:53;;;;;;;55.23;11.47;;;;;;;;;;4965827;28;20210;-63
2022/05/02 07:02:35;;;;;;;155.63;29.40;;;;;;;;;;4958271;28;20301;-64
2022/05/02 07:05:06;;;;;;;117.90;24.30;;;;;;;;;;4961623;28;20221;-65
2022/05/02 07:07:55;;;;;;;74.43;15.45;;;;;;;;;;4961164;28;20217;-67
2022/05/02 07:10:25;;;;;;;95.00;18.77;;;;;;;;;;4954586;28;20240;-68
2022/05/02 07:12:51;;;;;;;158.83;31.53;;;;;;;;;;4949320;28;20225;-67
2022/05/02 07:15:32;;;;;;;83.68;16.88;;;;;;;;;;4958948;28;20256;-68
2022/05/02 07:18:06;;;;;;;116.75;24.20;;;;;;;;;;4957594;28;20227;-68
2022/05/02 07:20:46;;;;;;;98.97;19.02;;;;;;;;;;4961848;28;20214;-67
2022/05/02 07:23:26;;;;;;;178.45;34.67;;;;;;;;;;4954618;28;20241;-68
2022/05/02 07:25:56;;;;;;;141.98;27.25;;;;;;;;;;4952285;28;20556;-67
2022/05/02 07:28:22;;;;;;;135.15;26.13;;;;;;;;;;4948008;28;20268;-68
2022/05/02 07:30:48;;;;;;;77.80;15.52;;;;;;;;;;4952898;28;20225;-67
2022/05/02 07:33:14;;;;;;;200.52;39.03;;;;;;;;;;4948692;28;20214;-66
2022/05/02 07:35:41;;;;;;;83.88;17.00;;;;;;;;;;4951486;28;20222;-67
2022/05/02 07:38:08;;;;;;;115.15;24.00;;;;;;;;;;4954894;28;20329;-66
2022/05/02 07:40:34;;;;;;;86.28;17.85;;;;;;;;;;4964592;28;20202;-66
2022/05/02 07:43:01;;;;;;;101.10;22.80;;;;;;;;;;4958203;28;20210;-67
2022/05/02 07:45:28;;;;;;;118.70;24.23;;;;;;;;;;4961509;28;20197;-66
2022/05/02 07:47:55;;;;;;;111.13;22.27;;;;;;;;;;4948143;28;20183;-65
2022/05/02 07:50:22;;;;;;;122.85;24.73;;;;;;;;;;4960091;28;20267;-67
2022/05/02 07:52:48;;;;;;;60.10;12.60;;;;;;;;;;4954023;28;20294;-66
2022/05/02 07:55:15;;;;;;;77.87;16.33;;;;;;;;;;4958352;28;20225;-66
2022/05/02 07:57:42;;;;;;;83.22;18.45;;;;;;;;;;4962022;28;20596;-66
2022/05/02 08:00:10;;;;;;;143.30;30.15;;;;;;;;;;4961375;28;20194;-64
2022/05/02 08:02:36;;;;;;;246.57;52.22;;;;;;;;;;4955035;28;20224;-67
2022/05/02 08:05:02;;;;;;;112.35;23.70;;;;;;;;;;4952601;28;20223;-65
2022/05/02 08:07:27;;;;;;;122.22;26.10;;;;;;;;;;4959350;28;20300;-67
2022/05/02 08:09:53;;;;;;;144.15;29.25;;;;;;;;;;4954764;28;20293;-66
2022/05/02 08:12:27;;;;;;;152.00;30.17;;;;;;;;;;4953423;28;20244;-67
2022/05/02 08:14:53;;;;;;;115.18;23.73;;;;;;;;;;4953166;28;20397;-66
2022/05/02 08:17:25;;;;;;;80.88;16.70;;;;;;;;;;4952319;28;20225;-64
2022/05/02 08:19:51;;;;;;;157.05;32.50;;;;;;;;;;4958773;28;23471;-65
2022/05/02 08:28:18;;;;;;;108.72;22.52;;;;;;;;;;4952337;28;20806;-65
2022/05/02 08:31:04;;;;;;;160.93;33.92;;;;;;;;;;4950263;28;20333;-63
2022/05/02 08:33:30;;;;;;;83.82;18.58;;;;;;;;;;4952331;28;20393;-64
2022/05/02 08:35:57;;;;;;;102.72;24.30;;;;;;;;;;4962333;28;20186;-63
2022/05/02 08:38:41;;;;;;;65.85;17.60;;;;;;;;;;4946379;28;20211;-65
2022/05/02 08:41:10;;;;;;;230.25;56.22;;;;;;;;;;4952373;28;20211;-67
2022/05/02 08:43:47;;;;;;;182.52;42.28;;;;;;;;;;4948417;28;20217;-67
2022/05/02 08:46:32;;;;;;;92.43;22.55;;;;;;;;;;4937973;28;20313;-68
2022/05/02 08:49:32;;;;;;;188.68;48.45;;;;;;;;;;4951101;28;20421;-67
2022/05/02 08:52:11;;;;;;;143.30;35.42;;;;;;;;;;4956394;28;20218;-66
2022/05/02 08:54:47;;;;;;;113.32;27.98;;;;;;;;;;4952520;28;20207;-67
2022/05/02 08:57:26;;;;;;;94.15;22.52;;;;;;;;;;4955826;28;20253;-67
2022/05/02 09:00:06;;;;;;;114.88;24.75;;;;;;;;;;4952164;28;20214;-68
2022/05/02 09:02:48;;;;;;;113.07;25.85;;;;;;;;;;4953488;28;20246;-67
2022/05/02 09:05:14;;;;;;;190.77;42.85;;;;;;;;;;4952283;28;20272;-66
2022/05/02 09:07:40;;;;;;;143.23;33.72;;;;;;;;;;4956376;28;20329;-69
2022/05/02 09:10:06;;;;;;;122.75;31.25;;;;;;;;;;4950581;28;20217;-68
2022/05/02 09:12:51;;;;;;;202.00;53.25;;;;;;;;;;4954876;28;20810;-67
2022/05/02 09:15:17;;;;;;;135.88;32.15;;;;;;;;;;4944245;28;20213;-67
2022/05/02 09:18:01;;;;;;;101.70;25.38;;;;;;;;;;4952810;28;20209;-66
2022/05/02 09:20:42;;;;;;;117.18;27.52;;;;;;;;;;4954767;28;20222;-67
2022/05/02 09:23:26;;;;;;;166.82;38.80;;;;;;;;;;4953669;28;20265;-65
2022/05/02 09:26:05;;;;;;;144.07;33.08;;;;;;;;;;4948629;28;20723;-67
2022/05/02 09:28:36;;;;;;;129.45;31.58;;;;;;;;;;4946906;28;20229;-67
2022/05/02 09:31:11;;;;;;;141.57;36.53;;;;;;;;;;4958261;28;20211;-67
2022/05/02 09:33:37;;;;;;;92.78;23.15;;;;;;;;;;4961278;28;20679;-67
2022/05/02 09:36:03;;;;;;;167.23;45.10;;;;;;;;;;4961113;28;20597;-67
2022/05/02 09:38:34;;;;;;;93.88;23.20;;;;;;;;;;4962840;28;20266;-67
2022/05/02 09:41:01;;;;;;;99.03;27.48;;;;;;;;;;4961317;28;20241;-67
2022/05/02 09:49:33;;;;;;;72.32;18.65;;;;;;;;;;4961608;28;20759;-67
2022/05/02 09:49:36;;;;;;;78.53;19.15;;;;;;;;;;4953636;28;20213;-67
2022/05/02 09:52:04;;;;;;;160.50;40.75;;;;;;;;;;4962653;28;20308;-67
2022/05/02 09:57:43;;;;;;;82.38;20.40;;;;;;;;;;4918976;29;20227;-67
2022/05/02 10:02:59;;;;;;;109.35;26.17;;;;;;;;;;4944688;28;20217;-66
2022/05/02 10:05:27;;;;;;;74.60;18.42;;;;;;;;;;4962659;28;20240;-67
2022/05/02 10:07:58;;;;;;;86.28;21.42;;;;;;;;;;4960383;28;20548;-66
2022/05/02 10:10:30;;;;;;;75.85;18.33;;;;;;;;;;4961957;28;20250;-67
2022/05/02 10:12:56;;;;;;;135.93;35.78;;;;;;;;;;4959697;28;20222;-67
2022/05/02 10:15:45;;;;;;;115.65;27.55;;;;;;;;;;4962643;28;20217;-67
2022/05/02 10:18:14;;;;;;;265.65;66.80;;;;;;;;;;4942487;28;20190;-67
2022/05/02 10:20:54;;;;;;;145.50;35.97;;;;;;;;;;4926160;28;20221;-65
2022/05/02 10:23:39;;;;;;;88.00;21.23;;;;;;;;;;4950627;28;20222;-66
2022/05/02 10:26:11;;;;;;;219.70;55.13;;;;;;;;;;4949372;28;20206;-67
2022/05/02 10:28:56;;;;;;;89.90;25.33;;;;;;;;;;4949161;28;20906;-67
2022/05/02 10:31:28;;;;;;;178.27;50.47;;;;;;;;;;4949619;28;20214;-67
2022/05/02 10:33:54;;;;;;;76.00;21.25;;;;;;;;;;4949980;28;20261;-66
2022/05/02 10:36:23;;;;;;;181.73;45.63;;;;;;;;;;4954554;28;20183;-66
2022/05/02 10:39:05;;;;;;;88.40;22.77;;;;;;;;;;4955143;28;20466;-68
2022/05/02 10:41:40;;;;;;;79.93;21.70;;;;;;;;;;4959059;28;20257;-69
2022/05/02 10:44:06;;;;;;;189.40;53.10;;;;;;;;;;4957305;28;20312;-67
2022/05/02 10:46:33;;;;;;;121.80;31.60;;;;;;;;;;4943571;28;20938;-67
2022/05/02 10:49:18;;;;;;;148.27;39.63;;;;;;;;;;4948665;28;20190;-66
2022/05/02 10:52:03;;;;;;;115.90;29.95;;;;;;;;;;4948684;28;20199;-66
2022/05/02 10:54:28;;;;;;;104.35;24.50;;;;;;;;;;4953480;28;20237;-67
2022/05/02 10:56:59;;;;;;;162.40;39.70;;;;;;;;;;4947999;28;20565;-65
2022/05/02 10:59:29;;;;;;;144.20;35.17;;;;;;;;;;4955537;28;20270;-65
2022/05/02 11:01:55;;;;;;;157.93;45.17;;;;;;;;;;4945274;28;20223;-66
2022/05/02 11:04:24;;;;;;;122.65;29.77;;;;;;;;;;4944621;28;20225;-66
2022/05/02 11:06:53;;;;;;;165.32;40.90;;;;;;;;;;4955036;28;20194;-66
2022/05/02 11:09:38;;;;;;;106.88;28.17;;;;;;;;;;4959489;28;20238;-65
2022/05/02 11:12:05;;;;;;;179.90;46.10;;;;;;;;;;4959717;28;20217;-67
2022/05/02 11:14:35;;;;;;;138.07;35.20;;;;;;;;;;4955724;28;20222;-67
2022/05/02 11:17:08;;;;;;;182.65;49.88;;;;;;;;;;4942681;28;20292;-65
2022/05/02 11:22:44;;;;;;;125.40;33.53;;;;;;;;;;4913209;29;20339;-63
2022/05/02 11:25:19;;;;;;;202.07;53.40;;;;;;;;;;4948601;28;20205;-67
2022/05/02 11:28:00;;;;;;;159.75;42.03;;;;;;;;;;4960039;28;20237;-65
2022/05/02 11:30:28;;;;;;;79.68;23.42;;;;;;;;;;4962541;28;20233;-67
2022/05/02 11:33:03;;;;;;;103.70;30.42;;;;;;;;;;4960575;28;20222;-67
2022/05/02 11:35:30;;;;;;;97.93;28.95;;;;;;;;;;4954823;28;20218;-67
2022/05/02 11:38:07;;;;;;;143.82;42.42;;;;;;;;;;4956717;28;20288;-68
2022/05/02 11:40:35;;;;;;;97.63;27.45;;;;;;;;;;4960348;28;20308;-67
2022/05/02 11:43:03;;;;;;;162.77;49.08;;;;;;;;;;4950176;28;20205;-66
2022/05/02 11:45:42;;;;;;;65.88;21.42;;;;;;;;;;4954574;28;20178;-67
2022/05/02 11:48:18;;;;;;;150.60;43.85;;;;;;;;;;4956066;28;20230;-66
2022/05/02 11:50:45;;;;;;;70.20;22.58;;;;;;;;;;4964016;28;20241;-65
2022/05/02 11:53:14;;;;;;;125.13;36.75;;;;;;;;;;4947131;28;20309;-66
2022/05/02 11:55:40;;;;;;;132.07;36.72;;;;;;;;;;4957524;28;20218;-65
2022/05/02 11:58:11;;;;;;;127.03;39.40;;;;;;;;;;4958162;28;20197;-65
2022/05/02 12:00:37;;;;;;;231.70;70.60;;;;;;;;;;4955858;28;20277;-67
2022/05/02 12:03:16;;;;;;;165.80;51.65;;;;;;;;;;4956757;28;20214;-65
2022/05/02 12:05:55;;;;;;;171.50;53.45;;;;;;;;;;4961872;28;20213;-65
2022/05/02 12:08:31;;;;;;;229.20;64.97;;;;;;;;;;4952316;28;20202;-66
2022/05/02 12:11:15;;;;;;;137.63;42.20;;;;;;;;;;4958715;28;20226;-65
2022/05/02 12:13:46;;;;;;;132.02;37.65;;;;;;;;;;4951865;28;20230;-66
2022/05/02 12:16:14;;;;;;;174.95;48.92;;;;;;;;;;4946104;28;20536;-67
2022/05/02 12:18:45;;;;;;;157.30;44.17;;;;;;;;;;4930901;28;20667;-66
2022/05/02 12:21:24;;;;;;;238.63;75.70;;;;;;;;;;4939774;28;20214;-66
2022/05/02 12:23:52;;;;;;;173.40;50.05;;;;;;;;;;4949695;28;20261;-68
2022/05/02 12:26:22;;;;;;;87.13;30.52;;;;;;;;;;4954472;28;20296;-67
2022/05/02 12:28:51;;;;;;;170.68;65.10;;;;;;;;;;4952669;28;20214;-66
2022/05/02 12:31:27;;;;;;;190.07;64.38;;;;;;;;;;4946314;28;20193;-67
2022/05/02 12:33:57;;;;;;;150.85;56.05;;;;;;;;;;4951321;28;20217;-64
2022/05/02 12:36:25;;;;;;;219.57;66.38;;;;;;;;;;4950939;28;20289;-66
2022/05/02 12:38:55;;;;;;;89.10;31.52;;;;;;;;;;4948923;28;20254;-66
2022/05/02 12:41:24;;;;;;;263.60;83.68;;;;;;;;;;4949224;28;20210;-67
2022/05/02 12:43:53;;;;;;;134.38;39.50;;;;;;;;;;4954148;28;20253;-66
2022/05/02 12:46:20;;;;;;;152.90;46.75;;;;;;;;;;4951411;28;20233;-66
2022/05/02 12:48:54;;;;;;;91.28;32.00;;;;;;;;;;4962692;28;20194;-65
2022/05/02 12:51:27;;;;;;;127.60;48.20;;;;;;;;;;4954403;28;20234;-66
2022/05/02 12:54:10;;;;;;;114.68;46.35;;;;;;;;;;4952971;28;20247;-65
2022/05/02 13:02:43;;;;;;;131.02;67.90;;;;;;;;;;4956863;28;20245;-63
2022/05/02 13:05:14;;;;;;;168.13;97.97;;;;;;;;;;4945140;28;20218;-64
2022/05/02 13:07:44;;;;;;;227.85;106.97;;;;;;;;;;4948888;28;20210;-63
2022/05/02 13:10:18;;;;;;;241.07;110.63;;;;;;;;;;4946081;28;20551;-63
2022/05/02 13:12:57;;;;;;;151.25;70.53;;;;;;;;;;4941442;28;20214;-63
2022/05/02 13:15:24;;;;;;;145.65;58.38;;;;;;;;;;4936099;28;20229;-63
2022/05/02 13:17:51;;;;;;;181.88;69.22;;;;;;;;;;4955428;28;20206;-63
2022/05/02 13:20:17;;;;;;;193.43;77.38;;;;;;;;;;4948142;28;20316;-64
2022/05/02 13:22:58;;;;;;;86.82;51.53;;;;;;;;;;4955789;28;20210;-63
2022/05/02 13:25:43;;;;;;;84.47;65.82;;;;;;;;;;4958140;28;20313;-63
2022/05/02 13:28:11;;;;;;;191.63;129.23;;;;;;;;;;4952873;28;20178;-63
2022/05/02 13:30:37;;;;;;;148.93;131.10;;;;;;;;;;4954991;28;20189;-63
2022/05/02 13:33:04;;;;;;;186.52;138.02;;;;;;;;;;4958241;28;20218;-63
2022/05/02 13:35:33;;;;;;;123.82;110.88;;;;;;;;;;4943992;28;20232;-63
2022/05/02 13:38:14;;;;;;;193.45;128.05;;;;;;;;;;4953973;28;20269;-63
2022/05/02 13:41:03;;;;;;;122.82;109.88;;;;;;;;;;4959968;28;20299;-63
2022/05/02 13:43:41;;;;;;;213.48;151.55;;;;;;;;;;4954671;28;20719;-63
2022/05/02 13:46:16;;;;;;;273.63;188.65;;;;;;;;;;4956189;28;20232;-62
2022/05/02 13:48:51;;;;;;;212.95;179.38;;;;;;;;;;4959377;28;20556;-62
2022/05/02 13:51:20;;;;;;;220.60;163.70;;;;;;;;;;4950636;28;20280;-63
2022/05/02 13:53:58;;;;;;;211.43;168.20;;;;;;;;;;4955268;28;20231;-63
2022/05/02 13:56:42;;;;;;;212.10;172.15;;;;;;;;;;4960668;28;20273;-62
2022/05/02 13:59:26;;;;;;;328.00;239.98;;;;;;;;;;4955305;28;20313;-63
2022/05/02 14:01:58;;;;;;;377.67;257.65;;;;;;;;;;4950583;28;20225;-63
2022/05/02 14:09:40;;;;;;;318.13;236.88;;;;;;;;;;4953144;28;20214;-63
2022/05/02 14:12:06;;;;;;;412.77;282.65;;;;;;;;;;4949825;28;20210;-64
2022/05/02 14:14:34;;;;;;;391.20;268.08;;;;;;;;;;4951670;28;20222;-67
2022/05/02 14:16:59;;;;;;;346.98;255.00;;;;;;;;;;4956629;28;20285;-62
2022/05/02 14:19:25;;;;;;;430.40;295.77;;;;;;;;;;4956615;28;20227;-64
2022/05/02 14:21:52;;;;;;;385.88;279.77;;;;;;;;;;4948226;28;20210;-65
2022/05/02 14:24:21;;;;;;;424.60;295.45;;;;;;;;;;4944985;28;20894;-63
2022/05/02 14:27:07;;;;;;;503.08;327.42;;;;;;;;;;4950403;28;20784;-63
2022/05/02 14:29:34;;;;;;;369.45;281.50;;;;;;;;;;4955661;28;20332;-63
2022/05/02 14:32:04;;;;;;;444.88;316.88;;;;;;;;;;4957664;28;20218;-64
2022/05/02 14:34:39;;;;;;;416.30;307.13;;;;;;;;;;4949683;28;20695;-62
2022/05/02 14:37:05;;;;;;;414.17;302.95;;;;;;;;;;4954734;28;20197;-63
2022/05/02 14:39:33;;;;;;;376.90;289.35;;;;;;;;;;4953105;28;20182;-63
2022/05/02 14:41:59;;;;;;;482.90;344.48;;;;;;;;;;4950842;28;20214;-63
2022/05/02 14:44:26;;;;;;;413.75;302.08;;;;;;;;;;4950255;28;20662;-63
2022/05/02 14:46:52;;;;;;;412.10;308.55;;;;;;;;;;4952174;28;20299;-64
2022/05/02 14:49:19;;;;;;;404.40;312.45;;;;;;;;;;4957122;28;20271;-63
2022/05/02 14:51:50;;;;;;;507.05;362.00;;;;;;;;;;4953183;28;20206;-64
2022/05/02 14:54:18;;;;;;;409.65;307.65;;;;;;;;;;4952703;28;20277;-65
2022/05/02 14:56:45;;;;;;;427.80;317.05;;;;;;;;;;4957593;28;20214;-65
2022/05/02 14:59:12;;;;;;;441.70;316.15;;;;;;;;;;4948447;28;21828;-63
2022/05/02 15:01:39;;;;;;;374.25;293.33;;;;;;;;;;4949953;28;20715;-64
2022/05/02 15:04:09;;;;;;;446.23;335.80;;;;;;;;;;4945389;28;20276;-65
2022/05/02 15:06:35;;;;;;;390.65;315.45;;;;;;;;;;4949043;28;20191;-65
2022/05/02 15:09:20;;;;;;;420.20;320.08;;;;;;;;;;4953694;28;20994;-63